Ana Sayfa
METAR-TAF:

METAR-TAF

Havaalanları :

North Kingstown, Rhode Island, Amerika Birleşik Devletleri

Enlem: 41-36N, Boylam: 071-25W, yükseklik: 6 m

Güncel hava durumu gözlemi

Rapor saat 15:50 UTC de 1 saat ve 14 dakika önce yapıldı.
Rüzgar kuzeydoğudan 23 kt
Sıcaklık 6°C
Nem 81%
Basınç 1016 hPa
Görüş mesafesi: 12.9 km
1200 ft yükseklikte çok bulutlu

METAR: KOQU 041550Z 04023KT 8SM OVC012 06/03 A3001

Saat: 13:04 (17:04 UTC)


TAF: eksik

4.000'den fazla havaalanı için hava durumu gözlemleri ve tahminleri (METAR ve TAF raporları).

Kullanılabilir istasyonlar harita üzerinde sarı ve kırmızı noktalarla gösterilir.

İstasyonun adını görmek için fareyi noktanın üzerinde gezdirin.

Sonrasında hava gözlem ve tahminlerini görmek için tıklayın.

Haritayı değiştirmek için: yaklaştırmak için siyah artı işaretli yeşil düğmeye ve uzaklaştırmak için de eksi işaretli düğmeye hızla tıklayın; bitişik haritalar için yeşil okları kullanın.


METAR-TAF: